createdAt,value
2023-05-15T00:01:34.037Z,5.17
2023-05-15T00:04:37.976Z,4.33
2023-05-15T00:07:41.929Z,4.77
2023-05-15T00:10:54.106Z,5.03
2023-05-15T00:14:03.121Z,5.33
2023-05-15T00:17:06.133Z,4.90
2023-05-15T00:20:11.431Z,5.00
2023-05-15T00:23:14.032Z,4.80
2023-05-15T00:26:16.631Z,4.93
2023-05-15T00:29:19.256Z,4.93
2023-05-15T00:32:21.959Z,5.07
2023-05-15T00:35:26.292Z,5.47
2023-05-15T00:38:29.010Z,4.80
2023-05-15T00:41:33.044Z,4.80
2023-05-15T00:44:37.047Z,5.27
2023-05-15T00:47:41.380Z,5.03
2023-05-15T00:50:45.680Z,5.10
2023-05-15T00:53:48.515Z,5.03
2023-05-15T00:56:52.510Z,5.00
2023-05-15T00:59:57.727Z,5.17
2023-05-15T01:03:00.650Z,5.70
2023-05-15T01:06:05.113Z,4.80
2023-05-15T01:09:08.690Z,5.50
2023-05-15T01:12:15.781Z,5.10
2023-05-15T01:15:18.554Z,5.50
2023-05-15T01:18:21.525Z,5.37
2023-05-15T01:21:46.835Z,5.70
2023-05-15T01:25:28.576Z,5.60
2023-05-15T01:28:39.239Z,4.90
2023-05-15T01:31:45.072Z,5.43
2023-05-15T01:34:58.374Z,5.40
2023-05-15T01:38:09.632Z,5.40
2023-05-15T01:41:22.211Z,5.33
2023-05-15T01:44:29.787Z,5.00
2023-05-15T01:47:37.873Z,5.40
2023-05-15T01:50:41.900Z,5.93
2023-05-15T01:53:46.464Z,5.63
2023-05-15T01:56:49.353Z,4.80
2023-05-15T01:59:54.585Z,5.00
2023-05-15T02:02:58.697Z,5.30
2023-05-15T02:06:02.592Z,5.50
2023-05-15T02:09:05.818Z,6.03
2023-05-15T02:12:09.346Z,5.73
2023-05-15T02:15:14.366Z,5.73
2023-05-15T02:18:17.243Z,6.33
2023-05-15T02:21:19.827Z,5.73
2023-05-15T02:24:22.426Z,5.77
2023-05-15T02:27:28.903Z,5.50
2023-05-15T02:30:39.496Z,5.90
2023-05-15T02:33:51.775Z,5.90
2023-05-15T02:36:58.942Z,5.40
2023-05-15T02:40:02.736Z,6.13
2023-05-15T02:43:06.467Z,5.73
2023-05-15T02:46:11.634Z,6.30
2023-05-15T02:49:15.175Z,6.60
2023-05-15T02:52:17.989Z,6.50
2023-05-15T02:55:20.930Z,6.50
2023-05-15T02:58:23.535Z,6.20
2023-05-15T03:01:27.526Z,6.37
2023-05-15T03:04:30.327Z,6.03
2023-05-15T03:07:33.003Z,6.40
2023-05-15T03:10:35.576Z,6.83
2023-05-15T03:13:38.147Z,6.60
2023-05-15T03:16:42.942Z,7.20
2023-05-15T03:19:45.694Z,6.77
2023-05-15T03:22:48.304Z,7.23
2023-05-15T03:25:50.912Z,6.60
2023-05-15T03:28:53.482Z,7.03
2023-05-15T03:31:57.559Z,8.03
2023-05-15T03:35:00.835Z,7.30
2023-05-15T03:38:03.538Z,7.17
2023-05-15T03:41:06.157Z,7.57
2023-05-15T03:44:08.770Z,7.10
2023-05-15T03:47:12.688Z,6.63
2023-05-15T03:50:15.448Z,7.07
2023-05-15T03:53:18.054Z,7.20
2023-05-15T03:56:21.266Z,7.60
2023-05-15T03:59:23.870Z,6.87
2023-05-15T04:02:28.202Z,7.50
2023-05-15T04:05:30.872Z,7.50
2023-05-15T04:08:33.524Z,7.30
2023-05-15T04:11:36.673Z,7.50
2023-05-15T04:14:39.278Z,7.60
2023-05-15T04:17:43.283Z,6.97
2023-05-15T04:20:45.939Z,7.67
2023-05-15T04:23:48.552Z,7.23
2023-05-15T04:26:51.209Z,7.53
2023-05-15T04:29:53.822Z,8.03
2023-05-15T04:32:57.925Z,7.10
2023-05-15T04:36:00.679Z,7.80
2023-05-15T04:39:03.374Z,7.60
2023-05-15T04:42:06.659Z,7.17
2023-05-15T04:45:10.268Z,7.50
2023-05-15T04:48:14.228Z,7.63
2023-05-15T04:51:16.881Z,7.90
2023-05-15T04:54:19.538Z,8.03
2023-05-15T04:57:22.461Z,7.43
2023-05-15T05:00:25.245Z,7.30
2023-05-15T05:03:29.319Z,6.90
2023-05-15T05:06:31.996Z,7.10
2023-05-15T05:09:35.174Z,8.07
2023-05-15T05:12:37.772Z,7.40
2023-05-15T05:15:40.418Z,7.87
2023-05-15T05:18:44.448Z,8.33
2023-05-15T05:21:47.076Z,8.00
2023-05-15T05:24:49.673Z,8.30
2023-05-15T05:27:52.338Z,8.50
2023-05-15T05:30:54.960Z,8.87
2023-05-15T05:33:58.882Z,8.33
2023-05-15T05:37:01.528Z,7.60
2023-05-15T05:40:06.572Z,8.00
2023-05-15T05:43:09.222Z,6.97
2023-05-15T05:46:11.909Z,7.07
2023-05-15T05:49:15.861Z,7.10
2023-05-15T05:52:18.428Z,6.57
2023-05-15T05:55:21.094Z,6.57
2023-05-15T05:58:26.097Z,6.70
2023-05-15T06:01:29.128Z,6.43
2023-05-15T06:04:34.181Z,6.20
2023-05-15T06:07:37.078Z,5.60
2023-05-15T06:10:39.923Z,6.40
2023-05-15T06:13:43.388Z,5.80
2023-05-15T06:16:46.054Z,5.37
2023-05-15T06:19:50.020Z,5.50
2023-05-15T06:22:52.612Z,5.20
2023-05-15T06:25:55.363Z,5.17
2023-05-15T06:28:57.960Z,6.37
2023-05-15T06:32:00.544Z,5.30
2023-05-15T06:35:04.855Z,5.23
2023-05-15T06:38:07.465Z,5.50
2023-05-15T06:41:10.120Z,4.70
2023-05-15T06:44:12.704Z,4.80
2023-05-15T06:47:15.305Z,4.60
2023-05-15T06:50:19.245Z,4.20
2023-05-15T06:53:21.943Z,4.20
2023-05-15T06:56:25.599Z,3.87
2023-05-15T06:59:28.315Z,3.50
2023-05-15T07:02:31.029Z,3.53
2023-05-15T07:05:34.967Z,3.00
2023-05-15T07:08:37.576Z,3.10
2023-05-15T07:11:42.118Z,3.00
2023-05-15T07:14:44.748Z,2.47
2023-05-15T07:17:47.389Z,2.60
2023-05-15T07:20:51.325Z,2.70
2023-05-15T07:23:53.927Z,2.70
2023-05-15T07:26:58.800Z,2.77
2023-05-15T07:30:03.373Z,2.50
2023-05-15T07:33:06.112Z,3.07
2023-05-15T07:36:10.533Z,2.70
2023-05-15T07:39:13.257Z,2.80
2023-05-15T07:42:16.018Z,2.63
2023-05-15T07:45:18.681Z,2.60
2023-05-15T07:48:21.662Z,2.50
2023-05-15T07:51:25.627Z,2.67
2023-05-15T07:54:30.000Z,2.60
2023-05-15T07:57:32.796Z,2.53
2023-05-15T08:00:35.406Z,2.20
2023-05-15T08:03:38.041Z,2.20
2023-05-15T08:06:42.775Z,2.33
2023-05-15T08:09:47.087Z,2.23
2023-05-15T08:12:50.580Z,2.87
2023-05-15T08:15:53.209Z,2.20
2023-05-15T08:19:01.048Z,2.73
2023-05-15T08:22:05.347Z,2.60
2023-05-15T08:25:09.109Z,2.30
2023-05-15T08:28:11.834Z,2.17
2023-05-15T08:31:14.550Z,2.60
2023-05-15T08:34:17.166Z,2.30
2023-05-15T08:37:21.153Z,2.03
2023-05-15T08:40:38.484Z,2.20
2023-05-15T08:43:43.929Z,2.10
2023-05-15T08:46:48.454Z,2.27
2023-05-15T08:50:00.524Z,2.40
2023-05-15T08:53:05.253Z,2.40
2023-05-15T08:56:08.168Z,2.30
2023-05-15T08:59:11.332Z,2.23
2023-05-15T09:02:14.145Z,2.50
2023-05-15T09:05:16.751Z,2.10
2023-05-15T09:08:23.612Z,2.45
2023-05-15T09:11:27.891Z,2.55
2023-05-15T09:14:30.648Z,2.17
2023-05-15T09:17:33.317Z,2.28
2023-05-15T09:20:37.634Z,2.38
2023-05-15T09:23:41.669Z,2.28
2023-05-15T09:26:44.453Z,2.53
2023-05-15T09:29:47.507Z,2.35
2023-05-15T09:32:51.596Z,2.33
2023-05-15T09:35:54.210Z,2.30
2023-05-15T09:39:01.979Z,2.17
2023-05-15T09:42:08.425Z,2.30
2023-05-15T09:45:18.739Z,2.40
2023-05-15T09:48:22.033Z,2.17
2023-05-15T09:51:24.950Z,2.40
2023-05-15T09:54:29.949Z,2.72
2023-05-15T09:57:32.790Z,2.03
2023-05-15T10:00:35.777Z,2.45
2023-05-15T10:03:38.416Z,2.45
2023-05-15T10:06:43.422Z,2.50
2023-05-15T10:09:47.523Z,2.83
2023-05-15T10:12:52.147Z,2.67
2023-05-15T10:15:56.205Z,2.50
2023-05-15T10:18:59.719Z,2.97
2023-05-15T10:22:03.185Z,2.38
2023-05-15T10:25:14.313Z,2.60
2023-05-15T10:43:54.859Z,2.58
2023-05-15T10:46:57.609Z,2.75
2023-05-15T10:50:00.476Z,2.40
2023-05-15T10:53:03.162Z,2.50
2023-05-15T10:56:06.485Z,2.38
2023-05-15T10:59:12.342Z,3.15
2023-05-15T11:02:23.165Z,2.53
2023-05-15T11:05:26.541Z,3.20
2023-05-15T11:08:29.733Z,2.47
2023-05-15T11:12:06.614Z,2.60
2023-05-15T11:15:23.160Z,3.05
2023-05-15T11:18:26.776Z,2.67
2023-05-15T11:21:33.270Z,2.42
2023-05-15T11:24:50.853Z,2.95
2023-05-15T11:27:56.269Z,3.03
2023-05-15T11:31:07.157Z,3.25
2023-05-15T11:34:09.841Z,2.53
2023-05-15T11:37:18.435Z,2.33
2023-05-15T11:40:23.499Z,2.50
2023-05-15T11:43:27.458Z,2.53
2023-05-15T11:46:33.990Z,2.80
2023-05-15T11:49:36.639Z,2.55
2023-05-15T11:52:40.085Z,3.03
2023-05-15T11:55:44.121Z,2.80
2023-05-15T11:58:49.757Z,2.88
2023-05-15T12:01:53.850Z,2.42
2023-05-15T12:04:56.465Z,2.95
2023-05-15T12:07:59.417Z,2.97
2023-05-15T12:11:02.886Z,2.63
2023-05-15T12:14:05.562Z,2.80
2023-05-15T12:17:09.539Z,3.45
2023-05-15T12:20:15.936Z,3.45
2023-05-15T12:23:21.607Z,2.55
2023-05-15T12:26:26.346Z,2.53
2023-05-15T12:29:29.550Z,2.90
2023-05-15T12:32:36.019Z,2.50
2023-05-15T12:35:43.884Z,3.25
2023-05-15T12:38:46.553Z,3.15
2023-05-15T12:41:49.933Z,9.65
2023-05-15T12:44:53.217Z,11.88
2023-05-15T12:47:59.704Z,3.13
2023-05-15T12:51:07.133Z,2.45
2023-05-15T12:54:19.083Z,2.38
2023-05-15T12:57:22.124Z,2.55
2023-05-15T13:00:25.460Z,3.55
2023-05-15T13:03:30.529Z,6.32
2023-05-15T13:06:44.965Z,2.70
2023-05-15T13:10:03.286Z,2.75
2023-05-15T13:13:06.007Z,2.60
2023-05-15T13:16:18.916Z,2.45
2023-05-15T13:19:22.916Z,2.90
2023-05-15T13:22:26.672Z,2.60
2023-05-15T13:25:32.120Z,3.90
2023-05-15T13:28:35.419Z,3.10
2023-05-15T13:31:38.086Z,2.60
2023-05-15T13:34:42.030Z,2.50
2023-05-15T13:37:44.722Z,2.70
2023-05-15T13:40:47.312Z,2.90
2023-05-15T13:43:49.984Z,2.78
2023-05-15T13:46:52.677Z,3.88
2023-05-15T13:49:56.640Z,2.70
2023-05-15T13:52:59.260Z,2.95
2023-05-15T13:56:01.986Z,2.58
2023-05-15T13:59:04.621Z,5.05
2023-05-15T14:02:07.282Z,4.18
2023-05-15T14:05:12.244Z,5.90
2023-05-15T14:08:15.716Z,5.70
2023-05-15T14:11:18.320Z,4.97
2023-05-15T14:14:21.000Z,5.13
2023-05-15T14:17:23.673Z,4.83
2023-05-15T14:20:27.861Z,4.50
2023-05-15T14:23:30.711Z,5.38
2023-05-15T14:26:33.381Z,6.75
2023-05-15T14:29:36.125Z,5.60
2023-05-15T14:32:38.854Z,6.03
2023-05-15T14:35:42.806Z,6.47
2023-05-15T14:38:47.822Z,6.83
2023-05-15T14:41:50.480Z,7.17
2023-05-15T14:44:53.058Z,7.43
2023-05-15T14:47:55.834Z,7.27
2023-05-15T14:51:01.053Z,8.50
2023-05-15T14:54:04.897Z,7.73
2023-05-15T14:57:07.993Z,14.33
2023-05-15T15:00:13.266Z,8.97
2023-05-15T15:03:16.034Z,9.63
2023-05-15T15:06:20.069Z,8.50
2023-05-15T15:09:22.671Z,8.10
2023-05-15T15:12:26.181Z,7.80
2023-05-15T15:15:29.006Z,8.53
2023-05-15T15:18:31.762Z,9.40
2023-05-15T15:21:36.823Z,8.37
2023-05-15T15:24:39.425Z,8.23
2023-05-15T15:27:42.036Z,7.50
2023-05-15T15:30:44.607Z,8.23
2023-05-15T15:33:47.181Z,7.43
2023-05-15T15:36:51.331Z,7.20
2023-05-15T15:39:54.147Z,7.00
2023-05-15T15:42:56.819Z,8.00
2023-05-15T15:45:59.448Z,11.50
2023-05-15T15:49:03.755Z,8.23
2023-05-15T15:52:08.546Z,8.87
2023-05-15T15:55:11.288Z,8.60
2023-05-15T15:58:13.903Z,8.80
2023-05-15T16:01:16.629Z,8.80
2023-05-15T16:04:19.257Z,9.30
2023-05-15T16:07:23.172Z,8.13
2023-05-15T16:10:25.832Z,8.67
2023-05-15T16:13:28.438Z,8.70
2023-05-15T16:16:31.469Z,7.30
2023-05-15T16:19:34.950Z,8.03
2023-05-15T16:22:41.443Z,8.23
2023-05-15T16:25:45.244Z,7.27
2023-05-15T16:28:47.848Z,7.13
2023-05-15T16:31:50.945Z,6.67
2023-05-15T16:34:53.586Z,6.30
2023-05-15T16:37:57.537Z,5.63
2023-05-15T16:41:00.098Z,4.67
2023-05-15T16:44:03.248Z,6.00
2023-05-15T16:47:06.226Z,4.80
2023-05-15T16:50:09.535Z,3.80
2023-05-15T16:53:14.873Z,3.90
2023-05-15T16:56:17.504Z,3.53
2023-05-15T16:59:20.089Z,2.90
2023-05-15T17:02:22.850Z,3.60
2023-05-15T17:05:25.534Z,12.23
2023-05-15T17:08:29.545Z,3.30
2023-05-15T17:11:32.152Z,2.90
2023-05-15T17:14:34.744Z,7.20
2023-05-15T17:17:37.389Z,5.70
2023-05-15T17:20:40.043Z,6.07
2023-05-15T17:23:43.965Z,5.20
2023-05-15T17:26:46.593Z,4.10
2023-05-15T17:29:49.429Z,5.47
2023-05-15T17:32:52.530Z,5.20
2023-05-15T17:35:55.162Z,5.50
2023-05-15T17:38:59.365Z,5.40
2023-05-15T17:42:03.044Z,5.60
2023-05-15T17:45:06.376Z,5.70
2023-05-15T17:48:09.090Z,5.37
2023-05-15T17:51:11.768Z,5.80
2023-05-15T17:54:15.744Z,5.10
2023-05-15T17:57:18.363Z,5.40
2023-05-15T18:00:21.324Z,6.43
2023-05-15T18:03:24.389Z,8.07
2023-05-15T18:06:28.145Z,6.87
2023-05-15T18:09:32.142Z,8.73
2023-05-15T18:12:35.195Z,5.90
2023-05-15T18:15:37.944Z,5.57
2023-05-15T18:18:40.650Z,4.90
2023-05-15T18:21:43.578Z,5.23
2023-05-15T18:24:47.669Z,5.47
2023-05-15T18:27:50.594Z,5.20
2023-05-15T18:30:53.382Z,4.87
2023-05-15T18:33:55.993Z,4.77
2023-05-15T18:36:59.292Z,4.13
2023-05-15T18:40:03.329Z,4.40
2023-05-15T18:43:06.280Z,4.10
2023-05-15T18:46:08.851Z,4.00
2023-05-15T18:49:11.487Z,4.17
2023-05-15T18:52:14.116Z,4.27
2023-05-15T18:55:19.228Z,4.37
2023-05-15T18:58:21.906Z,4.37
2023-05-15T19:01:24.560Z,4.47
2023-05-15T19:04:27.176Z,4.27
2023-05-15T19:07:29.859Z,4.50
2023-05-15T19:10:33.779Z,4.90
2023-05-15T19:13:36.568Z,4.00
2023-05-15T19:16:39.164Z,4.57
2023-05-15T19:19:41.853Z,4.13
2023-05-15T19:22:44.470Z,4.43
2023-05-15T19:25:48.452Z,4.20
2023-05-15T19:28:52.703Z,4.83
2023-05-15T19:31:55.381Z,4.60
2023-05-15T19:34:58.033Z,4.53
2023-05-15T19:38:00.615Z,4.47
2023-05-15T19:41:04.740Z,4.50
2023-05-15T19:44:08.185Z,4.97
2023-05-15T19:47:10.769Z,4.90
2023-05-15T19:50:13.881Z,4.67
2023-05-15T19:53:16.505Z,4.40
2023-05-15T19:56:21.427Z,4.47
2023-05-15T19:59:24.019Z,4.07
2023-05-15T20:02:26.656Z,4.97
2023-05-15T20:05:29.437Z,5.50
2023-05-15T20:08:32.126Z,4.60
2023-05-15T20:11:36.088Z,4.70
2023-05-15T20:14:38.684Z,4.97
2023-05-15T20:17:41.451Z,4.80
2023-05-15T20:20:44.695Z,5.10
2023-05-15T20:23:49.053Z,5.67
2023-05-15T20:26:53.019Z,6.13
2023-05-15T20:29:55.601Z,5.90
2023-05-15T20:32:58.268Z,5.70
2023-05-15T20:36:00.944Z,5.17
2023-05-15T20:39:07.067Z,5.80
2023-05-15T20:42:11.116Z,5.83
2023-05-15T20:45:13.802Z,5.93
2023-05-15T20:48:16.403Z,6.70
2023-05-15T20:51:19.034Z,7.07
2023-05-15T20:54:21.618Z,6.87
2023-05-15T20:57:25.637Z,6.10
2023-05-15T21:00:28.463Z,6.77
2023-05-15T21:03:31.400Z,7.30
2023-05-15T21:06:34.160Z,6.40
2023-05-15T21:09:36.853Z,7.10
2023-05-15T21:12:40.885Z,7.23
2023-05-15T21:15:43.499Z,7.63
2023-05-15T21:18:46.205Z,8.63
2023-05-15T21:21:48.893Z,7.07
2023-05-15T21:24:51.559Z,7.47
2023-05-15T21:27:55.588Z,8.57
2023-05-15T21:30:58.349Z,6.67
2023-05-15T21:34:00.986Z,6.70
2023-05-15T21:37:03.699Z,8.40
2023-05-15T21:40:07.144Z,7.33
2023-05-15T21:43:11.500Z,8.97
2023-05-15T21:46:14.136Z,6.43
2023-05-15T21:49:16.762Z,7.50
2023-05-15T21:52:19.362Z,5.93
2023-05-15T21:55:21.956Z,7.40
2023-05-15T21:58:25.931Z,6.37
2023-05-15T22:01:28.644Z,5.03
2023-05-15T22:04:31.323Z,8.40
2023-05-15T22:07:33.905Z,6.10
2023-05-15T22:10:36.653Z,5.17
2023-05-15T22:13:40.743Z,6.03
2023-05-15T22:16:43.365Z,6.93
2023-05-15T22:19:46.216Z,5.77
2023-05-15T22:22:48.911Z,6.40
2023-05-15T22:25:51.486Z,11.23
2023-05-15T22:28:56.566Z,6.40
2023-05-15T22:31:59.248Z,5.50
2023-05-15T22:35:02.140Z,6.80
2023-05-15T22:38:06.860Z,6.00
2023-05-15T22:41:09.724Z,5.50
2023-05-15T22:44:13.857Z,5.13
2023-05-15T22:47:16.506Z,4.80
2023-05-15T22:50:19.126Z,4.90
2023-05-15T22:53:21.744Z,5.33
2023-05-15T22:56:24.314Z,5.40
2023-05-15T22:59:28.339Z,5.50
2023-05-15T23:02:31.003Z,4.93
2023-05-15T23:05:33.700Z,4.80
2023-05-15T23:08:36.314Z,4.70
2023-05-15T23:11:39.164Z,4.40
2023-05-15T23:14:43.101Z,5.20
2023-05-15T23:17:45.920Z,6.67
2023-05-15T23:20:48.552Z,7.27
2023-05-15T23:23:51.517Z,7.93
2023-05-15T23:26:54.096Z,6.83
2023-05-15T23:29:58.077Z,7.47
2023-05-15T23:33:00.838Z,7.37
2023-05-15T23:36:03.566Z,6.70
2023-05-15T23:39:06.166Z,6.20
2023-05-15T23:42:09.934Z,6.60
2023-05-15T23:45:14.992Z,6.13
2023-05-15T23:48:17.842Z,6.10
2023-05-15T23:51:21.119Z,7.03
2023-05-15T23:54:23.727Z,6.90
2023-05-15T23:57:26.518Z,6.87
